sensor_id;sensor_type;location;lat;lon;timestamp;pressure;altitude;pressure_sealevel;temperature;humidity
69257;BME280;56376;53.356;-1.748;2023-05-27T00:00:53;101031.13;;;11.89;84.64
69257;BME280;56376;53.356;-1.748;2023-05-27T00:03:19;101029.41;;;11.85;84.82
69257;BME280;56376;53.356;-1.748;2023-05-27T00:05:44;101027.72;;;11.81;84.93
69257;BME280;56376;53.356;-1.748;2023-05-27T00:08:10;101026.03;;;11.79;84.57
69257;BME280;56376;53.356;-1.748;2023-05-27T00:10:36;101023.47;;;11.76;84.52
69257;BME280;56376;53.356;-1.748;2023-05-27T00:13:01;101024.44;;;11.70;84.61
69257;BME280;56376;53.356;-1.748;2023-05-27T00:15:26;101014.97;;;11.63;84.27
69257;BME280;56376;53.356;-1.748;2023-05-27T00:17:52;101021.13;;;11.59;84.21
69257;BME280;56376;53.356;-1.748;2023-05-27T00:20:17;101015.09;;;11.54;84.60
69257;BME280;56376;53.356;-1.748;2023-05-27T00:22:44;101019.53;;;11.52;84.74
69257;BME280;56376;53.356;-1.748;2023-05-27T00:25:10;101020.47;;;11.46;84.70
69257;BME280;56376;53.356;-1.748;2023-05-27T00:27:35;101026.66;;;11.40;85.07
69257;BME280;56376;53.356;-1.748;2023-05-27T00:30:01;101024.97;;;11.36;85.38
69257;BME280;56376;53.356;-1.748;2023-05-27T00:32:26;101023.31;;;11.32;85.65
69257;BME280;56376;53.356;-1.748;2023-05-27T00:34:52;101018.16;;;11.27;85.83
69257;BME280;56376;53.356;-1.748;2023-05-27T00:37:17;101017.31;;;11.25;86.21
69257;BME280;56376;53.356;-1.748;2023-05-27T00:39:43;101022.56;;;11.24;86.55
69257;BME280;56376;53.356;-1.748;2023-05-27T00:42:10;101020.88;;;11.20;86.43
69257;BME280;56376;53.356;-1.748;2023-05-27T00:44:35;101015.72;;;11.15;86.04
69257;BME280;56376;53.356;-1.748;2023-05-27T00:47:00;101020.16;;;11.10;85.97
69257;BME280;56376;53.356;-1.748;2023-05-27T00:49:26;101008.84;;;11.10;85.55
69257;BME280;56376;53.356;-1.748;2023-05-27T00:51:52;100999.28;;;11.05;85.89
69257;BME280;56376;53.356;-1.748;2023-05-27T00:54:18;100998.50;;;11.02;86.40
69257;BME280;56376;53.356;-1.748;2023-05-27T00:56:44;101002.03;;;10.98;86.21
69257;BME280;56376;53.356;-1.748;2023-05-27T00:59:09;101002.09;;;10.93;85.81
69257;BME280;56376;53.356;-1.748;2023-05-27T01:01:35;100998.66;;;10.88;86.22
69257;BME280;56376;53.356;-1.748;2023-05-27T01:04:02;100998.75;;;10.83;86.10
69257;BME280;56376;53.356;-1.748;2023-05-27T01:09:22;100991.88;;;10.76;86.61
69257;BME280;56376;53.356;-1.748;2023-05-27T01:11:51;100993.66;;;10.74;86.88
69257;BME280;56376;53.356;-1.748;2023-05-27T01:14:21;100988.47;;;10.71;87.40
69257;BME280;56376;53.356;-1.748;2023-05-27T01:16:51;100982.47;;;10.65;87.23
69257;BME280;56376;53.356;-1.748;2023-05-27T01:19:28;100978.16;;;10.60;87.45
69257;BME280;56376;53.356;-1.748;2023-05-27T01:21:57;100983.47;;;10.54;87.16
69257;BME280;56376;53.356;-1.748;2023-05-27T01:24:23;100985.22;;;10.52;87.53
69257;BME280;56376;53.356;-1.748;2023-05-27T01:26:49;100977.44;;;10.49;87.99
69257;BME280;56376;53.356;-1.748;2023-05-27T01:29:14;100974.81;;;10.49;87.44
69257;BME280;56376;53.356;-1.748;2023-05-27T01:32:06;100970.53;;;10.44;87.31
69257;BME280;56376;53.356;-1.748;2023-05-27T01:34:41;100976.69;;;10.38;87.33
69257;BME280;56376;53.356;-1.748;2023-05-27T01:37:13;100971.56;;;10.32;87.27
69257;BME280;56376;53.356;-1.748;2023-05-27T01:39:39;100964.63;;;10.28;87.68
69257;BME280;56376;53.356;-1.748;2023-05-27T01:42:06;100974.22;;;10.23;87.91
69257;BME280;56376;53.356;-1.748;2023-05-27T01:44:32;100969.09;;;10.16;87.89
69257;BME280;56376;53.356;-1.748;2023-05-27T01:47:00;100964.78;;;10.12;87.78
69257;BME280;56376;53.356;-1.748;2023-05-27T01:49:25;100959.59;;;10.09;87.84
69257;BME280;56376;53.356;-1.748;2023-05-27T01:51:52;100964.00;;;10.06;87.84
69257;BME280;56376;53.356;-1.748;2023-05-27T01:54:18;100955.31;;;10.02;87.76
69257;BME280;56376;53.356;-1.748;2023-05-27T01:56:43;100953.66;;;9.96;88.08
69257;BME280;56376;53.356;-1.748;2023-05-27T01:59:09;100964.13;;;9.93;88.08
69257;BME280;56376;53.356;-1.748;2023-05-27T02:01:34;100960.72;;;9.88;87.94
69257;BME280;56376;53.356;-1.748;2023-05-27T02:03:59;100956.41;;;9.86;87.92
69257;BME280;56376;53.356;-1.748;2023-05-27T02:06:26;100962.50;;;9.83;88.20
69257;BME280;56376;53.356;-1.748;2023-05-27T02:08:51;100953.00;;;9.76;87.98
69257;BME280;56376;53.356;-1.748;2023-05-27T02:11:17;100947.78;;;9.74;88.11
69257;BME280;56376;53.356;-1.748;2023-05-27T02:13:42;100941.72;;;9.75;87.92
69257;BME280;56376;53.356;-1.748;2023-05-27T02:16:08;100940.00;;;9.73;87.94
69257;BME280;56376;53.356;-1.748;2023-05-27T02:18:34;100942.66;;;9.68;87.97
69257;BME280;56376;53.356;-1.748;2023-05-27T02:21:00;100944.44;;;9.63;88.00
69257;BME280;56376;53.356;-1.748;2023-05-27T02:23:31;100945.34;;;9.61;88.55
69257;BME280;56376;53.356;-1.748;2023-05-27T02:25:56;100947.09;;;9.57;89.13
69257;BME280;56376;53.356;-1.748;2023-05-27T02:28:21;100940.19;;;9.51;89.29
69257;BME280;56376;53.356;-1.748;2023-05-27T02:30:47;100941.94;;;9.51;89.70
69257;BME280;56376;53.356;-1.748;2023-05-27T02:33:12;100937.63;;;9.47;89.63
69257;BME280;56376;53.356;-1.748;2023-05-27T02:35:38;100932.44;;;9.44;89.36
69257;BME280;56376;53.356;-1.748;2023-05-27T02:38:03;100930.78;;;9.38;89.06
69257;BME280;56376;53.356;-1.748;2023-05-27T02:40:30;100928.19;;;9.35;89.03
69257;BME280;56376;53.356;-1.748;2023-05-27T02:42:56;100935.19;;;9.30;89.57
69257;BME280;56376;53.356;-1.748;2023-05-27T02:45:21;100925.66;;;9.24;89.68
69257;BME280;56376;53.356;-1.748;2023-05-27T02:47:47;100922.22;;;9.21;89.52
69257;BME280;56376;53.356;-1.748;2023-05-27T02:50:12;100919.66;;;9.18;89.87
69257;BME280;56376;53.356;-1.748;2023-05-27T02:52:38;100922.28;;;9.13;89.94
69257;BME280;56376;53.356;-1.748;2023-05-27T02:55:03;100919.72;;;9.08;90.12
69257;BME280;56376;53.356;-1.748;2023-05-27T02:57:29;100910.19;;;9.07;90.19
69257;BME280;56376;53.356;-1.748;2023-05-27T02:59:55;100911.94;;;9.04;90.16
69257;BME280;56376;53.356;-1.748;2023-05-27T03:02:20;100915.41;;;9.03;90.25
69257;BME280;56376;53.356;-1.748;2023-05-27T03:04:46;100914.56;;;9.02;90.42
69257;BME280;56376;53.356;-1.748;2023-05-27T03:07:13;100909.34;;;8.99;90.46
69257;BME280;56376;53.356;-1.748;2023-05-27T03:09:38;100914.59;;;8.98;90.21
69257;BME280;56376;53.356;-1.748;2023-05-27T03:12:03;100909.44;;;8.90;89.77
69257;BME280;56376;53.356;-1.748;2023-05-27T03:14:29;100905.09;;;8.89;90.02
69257;BME280;56376;53.356;-1.748;2023-05-27T03:16:54;100904.25;;;8.87;90.07
69257;BME280;56376;53.356;-1.748;2023-05-27T03:19:20;100903.41;;;8.85;89.91
69257;BME280;56376;53.356;-1.748;2023-05-27T03:21:46;100897.34;;;8.78;89.86
69257;BME280;56376;53.356;-1.748;2023-05-27T03:24:11;100899.13;;;8.75;89.81
69257;BME280;56376;53.356;-1.748;2023-05-27T03:26:36;100897.41;;;8.71;90.24
69257;BME280;56376;53.356;-1.748;2023-05-27T03:29:02;100907.84;;;8.68;90.19
69257;BME280;56376;53.356;-1.748;2023-05-27T03:31:27;100902.66;;;8.63;89.93
69257;BME280;56376;53.356;-1.748;2023-05-27T03:33:52;100900.06;;;8.61;89.82
69257;BME280;56376;53.356;-1.748;2023-05-27T03:36:18;100894.88;;;8.58;89.88
69257;BME280;56376;53.356;-1.748;2023-05-27T03:38:43;100895.81;;;8.54;89.99
69257;BME280;56376;53.356;-1.748;2023-05-27T03:41:09;100892.34;;;8.52;90.03
69257;BME280;56376;53.356;-1.748;2023-05-27T03:43:34;100890.59;;;8.48;90.40
69257;BME280;56376;53.356;-1.748;2023-05-27T03:45:59;100892.38;;;8.44;90.41
69257;BME280;56376;53.356;-1.748;2023-05-27T03:48:25;100890.66;;;8.42;90.80
69257;BME280;56376;53.356;-1.748;2023-05-27T03:50:51;100899.31;;;8.38;90.98
69257;BME280;56376;53.356;-1.748;2023-05-27T03:53:16;100891.53;;;8.35;91.17
69257;BME280;56376;53.356;-1.748;2023-05-27T03:55:43;100886.34;;;8.30;91.21
69257;BME280;56376;53.356;-1.748;2023-05-27T03:58:08;100884.63;;;8.28;90.94
69257;BME280;56376;53.356;-1.748;2023-05-27T04:00:33;100886.38;;;8.24;90.93
69257;BME280;56376;53.356;-1.748;2023-05-27T04:03:00;100880.31;;;8.20;91.02
69257;BME280;56376;53.356;-1.748;2023-05-27T04:05:26;100880.34;;;8.17;91.08
69257;BME280;56376;53.356;-1.748;2023-05-27T04:07:52;100888.16;;;8.17;91.15
69257;BME280;56376;53.356;-1.748;2023-05-27T04:10:17;100885.56;;;8.14;91.56
69257;BME280;56376;53.356;-1.748;2023-05-27T04:12:42;100877.75;;;8.14;91.57
69257;BME280;56376;53.356;-1.748;2023-05-27T04:15:08;100873.44;;;8.12;91.54
69257;BME280;56376;53.356;-1.748;2023-05-27T04:17:34;100874.28;;;8.11;91.52
69257;BME280;56376;53.356;-1.748;2023-05-27T04:20:00;100880.38;;;8.10;91.66
69257;BME280;56376;53.356;-1.748;2023-05-27T04:22:26;100876.91;;;8.06;92.24
69257;BME280;56376;53.356;-1.748;2023-05-27T04:24:52;100880.38;;;8.05;92.25
69257;BME280;56376;53.356;-1.748;2023-05-27T04:27:18;100881.25;;;8.02;92.76
69257;BME280;56376;53.356;-1.748;2023-05-27T04:29:44;100883.00;;;8.02;92.98
69257;BME280;56376;53.356;-1.748;2023-05-27T04:32:11;100881.25;;;8.01;92.75
69257;BME280;56376;53.356;-1.748;2023-05-27T04:34:37;100876.94;;;7.98;92.83
69257;BME280;56376;53.356;-1.748;2023-05-27T04:37:06;100876.97;;;7.97;93.30
69257;BME280;56376;53.356;-1.748;2023-05-27T04:39:35;100879.56;;;7.95;93.51
69257;BME280;56376;53.356;-1.748;2023-05-27T04:42:00;100875.22;;;7.93;93.72
69257;BME280;56376;53.356;-1.748;2023-05-27T04:44:26;100875.25;;;7.94;93.78
69257;BME280;56376;53.356;-1.748;2023-05-27T04:46:53;100880.41;;;7.96;94.23
69257;BME280;56376;53.356;-1.748;2023-05-27T04:49:20;100876.97;;;7.97;94.51
69257;BME280;56376;53.356;-1.748;2023-05-27T04:51:45;100880.41;;;7.97;94.91
69257;BME280;56376;53.356;-1.748;2023-05-27T04:54:12;100880.44;;;7.99;95.09
69257;BME280;56376;53.356;-1.748;2023-05-27T04:56:37;100889.94;;;7.98;95.64
69257;BME280;56376;53.356;-1.748;2023-05-27T04:59:03;100895.16;;;8.01;95.65
69257;BME280;56376;53.356;-1.748;2023-05-27T05:01:30;100889.94;;;8.03;95.95
69257;BME280;56376;53.356;-1.748;2023-05-27T05:04:04;100882.13;;;8.03;95.50
69257;BME280;56376;53.356;-1.748;2023-05-27T05:06:40;100878.66;;;8.02;95.48
69257;BME280;56376;53.356;-1.748;2023-05-27T05:09:06;100890.78;;;8.05;95.98
69257;BME280;56376;53.356;-1.748;2023-05-27T05:11:34;100896.00;;;8.03;95.46
69257;BME280;56376;53.356;-1.748;2023-05-27T05:14:00;100890.78;;;8.05;96.30
69257;BME280;56376;53.356;-1.748;2023-05-27T05:16:25;100894.25;;;8.07;97.04
69257;BME280;56376;53.356;-1.748;2023-05-27T05:18:51;100889.91;;;8.08;97.09
69257;BME280;56376;53.356;-1.748;2023-05-27T05:21:16;100896.84;;;8.10;97.32
69257;BME280;56376;53.356;-1.748;2023-05-27T05:23:41;100892.47;;;8.15;97.17
69257;BME280;56376;53.356;-1.748;2023-05-27T05:26:07;100889.00;;;8.19;97.30
69257;BME280;56376;53.356;-1.748;2023-05-27T05:28:33;100884.63;;;8.23;97.40
69257;BME280;56376;53.356;-1.748;2023-05-27T05:30:59;100882.00;;;8.26;97.64
69257;BME280;56376;53.356;-1.748;2023-05-27T05:33:25;100887.19;;;8.31;97.88
69257;BME280;56376;53.356;-1.748;2023-05-27T05:35:50;100887.19;;;8.37;97.68
69257;BME280;56376;53.356;-1.748;2023-05-27T05:38:16;100887.16;;;8.43;97.94
69257;BME280;56376;53.356;-1.748;2023-05-27T05:40:41;100880.19;;;8.48;98.01
69257;BME280;56376;53.356;-1.748;2023-05-27T05:43:06;100892.31;;;8.54;98.78
69257;BME280;56376;53.356;-1.748;2023-05-27T05:45:32;100884.47;;;8.60;98.89
69257;BME280;56376;53.356;-1.748;2023-05-27T05:47:57;100884.41;;;8.66;99.36
69257;BME280;56376;53.356;-1.748;2023-05-27T05:50:23;100878.28;;;8.72;99.49
69257;BME280;56376;53.356;-1.748;2023-05-27T05:52:48;100877.41;;;8.77;99.77
69257;BME280;56376;53.356;-1.748;2023-05-27T05:55:13;100877.34;;;8.85;100.00
69257;BME280;56376;53.356;-1.748;2023-05-27T05:57:39;100877.25;;;8.94;100.00
69257;BME280;56376;53.356;-1.748;2023-05-27T06:00:05;100872.88;;;9.01;100.00
69257;BME280;56376;53.356;-1.748;2023-05-27T06:02:30;100867.59;;;9.10;100.00
69257;BME280;56376;53.356;-1.748;2023-05-27T06:04:55;100867.50;;;9.16;100.00
69257;BME280;56376;53.356;-1.748;2023-05-27T06:07:21;100868.25;;;9.30;100.00
69257;BME280;56376;53.356;-1.748;2023-05-27T06:09:47;100866.34;;;9.45;100.00
69257;BME280;56376;53.356;-1.748;2023-05-27T06:12:13;100864.50;;;9.58;100.00
69257;BME280;56376;53.356;-1.748;2023-05-27T06:14:38;100857.41;;;9.70;100.00
69257;BME280;56376;53.356;-1.748;2023-05-27T06:17:04;100853.75;;;9.84;100.00
69257;BME280;56376;53.356;-1.748;2023-05-27T06:19:29;100857.03;;;10.00;100.00
69257;BME280;56376;53.356;-1.748;2023-05-27T06:21:56;100859.47;;;10.13;100.00
69257;BME280;56376;53.356;-1.748;2023-05-27T06:24:22;100850.59;;;10.25;100.00
69257;BME280;56376;53.356;-1.748;2023-05-27T06:26:47;100854.81;;;10.38;100.00
69257;BME280;56376;53.356;-1.748;2023-05-27T06:29:15;100858.97;;;10.52;100.00
69257;BME280;56376;53.356;-1.748;2023-05-27T06:31:40;100855.31;;;10.64;100.00
69257;BME280;56376;53.356;-1.748;2023-05-27T06:34:05;100848.16;;;10.75;100.00
69257;BME280;56376;53.356;-1.748;2023-05-27T06:36:31;100849.66;;;10.88;100.00
69257;BME280;56376;53.356;-1.748;2023-05-27T06:38:56;100842.47;;;11.01;100.00
69257;BME280;56376;53.356;-1.748;2023-05-27T06:41:22;100841.41;;;11.13;100.00
69257;BME280;56376;53.356;-1.748;2023-05-27T06:43:47;100847.28;;;11.25;100.00
69257;BME280;56376;53.356;-1.748;2023-05-27T06:46:13;100843.59;;;11.37;100.00
69257;BME280;56376;53.356;-1.748;2023-05-27T06:48:38;100841.59;;;11.50;100.00
69257;BME280;56376;53.356;-1.748;2023-05-27T06:51:05;100841.41;;;11.61;100.00
69257;BME280;56376;53.356;-1.748;2023-05-27T06:53:31;100835.91;;;11.73;100.00
69257;BME280;56376;53.356;-1.748;2023-05-27T06:55:56;100833.88;;;11.89;100.00
69257;BME280;56376;53.356;-1.748;2023-05-27T06:58:21;100823.97;;;12.03;100.00
69257;BME280;56376;53.356;-1.748;2023-05-27T07:00:47;100825.47;;;12.15;100.00
69257;BME280;56376;53.356;-1.748;2023-05-27T07:03:12;100822.53;;;12.29;99.04
69257;BME280;56376;53.356;-1.748;2023-05-27T07:05:37;100813.56;;;12.39;95.71
69257;BME280;56376;53.356;-1.748;2023-05-27T07:08:03;100820.25;;;12.52;95.18
69257;BME280;56376;53.356;-1.748;2023-05-27T07:10:29;100819.94;;;12.65;93.72
69257;BME280;56376;53.356;-1.748;2023-05-27T07:12:54;100812.56;;;12.81;91.93
69257;BME280;56376;53.356;-1.748;2023-05-27T07:15:20;100809.66;;;12.93;87.90
69257;BME280;56376;53.356;-1.748;2023-05-27T07:17:45;100798.91;;;13.02;83.49
69257;BME280;56376;53.356;-1.748;2023-05-27T07:20:11;100802.94;;;13.15;83.70
69257;BME280;56376;53.356;-1.748;2023-05-27T07:22:37;100805.19;;;13.31;82.18
69257;BME280;56376;53.356;-1.748;2023-05-27T07:25:02;100805.69;;;13.44;81.06
69257;BME280;56376;53.356;-1.748;2023-05-27T07:27:28;100799.19;;;13.57;79.47
69257;BME280;56376;53.356;-1.748;2023-05-27T07:29:53;100796.25;;;13.68;79.46
69257;BME280;56376;53.356;-1.748;2023-05-27T07:32:19;100798.53;;;13.80;80.08
69257;BME280;56376;53.356;-1.748;2023-05-27T07:34:44;100792.00;;;13.93;79.18
69257;BME280;56376;53.356;-1.748;2023-05-27T07:37:09;100796.84;;;14.07;79.45
69257;BME280;56376;53.356;-1.748;2023-05-27T07:39:35;100792.06;;;14.20;79.51
69257;BME280;56376;53.356;-1.748;2023-05-27T07:42:00;100777.84;;;14.27;77.48
69257;BME280;56376;53.356;-1.748;2023-05-27T07:44:26;100788.81;;;14.40;76.68
69257;BME280;56376;53.356;-1.748;2023-05-27T07:46:53;100781.63;;;14.45;77.05
69257;BME280;56376;53.356;-1.748;2023-05-27T07:49:18;100782.16;;;14.56;77.23
69257;BME280;56376;53.356;-1.748;2023-05-27T07:51:44;100779.13;;;14.68;77.27
69257;BME280;56376;53.356;-1.748;2023-05-27T07:54:09;100776.91;;;14.83;76.40
69257;BME280;56376;53.356;-1.748;2023-05-27T07:56:35;100771.22;;;14.95;75.17
69257;BME280;56376;53.356;-1.748;2023-05-27T07:59:00;100764.56;;;15.10;76.27
69257;BME280;56376;53.356;-1.748;2023-05-27T08:01:25;100769.34;;;15.24;74.90
69257;BME280;56376;53.356;-1.748;2023-05-27T08:03:55;100762.63;;;15.40;73.69
69257;BME280;56376;53.356;-1.748;2023-05-27T08:06:21;100749.00;;;15.52;73.25
69257;BME280;56376;53.356;-1.748;2023-05-27T08:08:46;100752.75;;;15.69;71.97
69257;BME280;56376;53.356;-1.748;2023-05-27T08:11:13;100748.75;;;15.82;70.16
69257;BME280;56376;53.356;-1.748;2023-05-27T08:13:38;100738.84;;;15.89;68.98
69257;BME280;56376;53.356;-1.748;2023-05-27T08:16:04;100740.38;;;15.94;69.09
69257;BME280;56376;53.356;-1.748;2023-05-27T08:18:29;100742.84;;;15.99;68.90
69257;BME280;56376;53.356;-1.748;2023-05-27T08:20:54;100736.41;;;16.06;69.50
69257;BME280;56376;53.356;-1.748;2023-05-27T08:23:20;100739.47;;;16.17;71.03
69257;BME280;56376;53.356;-1.748;2023-05-27T08:25:45;100730.22;;;16.29;69.74
69257;BME280;56376;53.356;-1.748;2023-05-27T08:28:11;100730.56;;;16.42;67.31
69257;BME280;56376;53.356;-1.748;2023-05-27T08:30:36;100733.81;;;16.49;66.60
69257;BME280;56376;53.356;-1.748;2023-05-27T08:33:02;100731.84;;;16.54;66.00
69257;BME280;56376;53.356;-1.748;2023-05-27T08:35:27;100723.59;;;16.61;66.58
69257;BME280;56376;53.356;-1.748;2023-05-27T08:37:53;100720.03;;;16.62;66.13
69257;BME280;56376;53.356;-1.748;2023-05-27T08:40:18;100714.84;;;16.61;66.83
69257;BME280;56376;53.356;-1.748;2023-05-27T08:42:46;100722.09;;;16.56;66.52
69257;BME280;56376;53.356;-1.748;2023-05-27T08:45:12;100716.16;;;16.51;66.59
69257;BME280;56376;53.356;-1.748;2023-05-27T08:47:38;100713.56;;;16.49;67.38
69257;BME280;56376;53.356;-1.748;2023-05-27T08:50:04;100723.19;;;16.50;67.68
69257;BME280;56376;53.356;-1.748;2023-05-27T08:52:31;100722.41;;;16.48;67.88
69257;BME280;56376;53.356;-1.748;2023-05-27T08:54:58;100711.13;;;16.44;67.09
69257;BME280;56376;53.356;-1.748;2023-05-27T08:57:31;100715.41;;;16.47;66.52
69257;BME280;56376;53.356;-1.748;2023-05-27T08:59:58;100705.84;;;16.44;66.58
69257;BME280;56376;53.356;-1.748;2023-05-27T09:02:24;100708.56;;;16.43;67.48
69257;BME280;56376;53.356;-1.748;2023-05-27T09:04:50;100705.03;;;16.42;67.22
69257;BME280;56376;53.356;-1.748;2023-05-27T09:07:16;100701.41;;;16.45;66.94
69257;BME280;56376;53.356;-1.748;2023-05-27T09:09:42;100698.72;;;16.47;67.66
69257;BME280;56376;53.356;-1.748;2023-05-27T09:12:08;100696.03;;;16.48;66.87
69257;BME280;56376;53.356;-1.748;2023-05-27T09:14:34;100692.41;;;16.51;66.60
69257;BME280;56376;53.356;-1.748;2023-05-27T09:17:06;100685.28;;;16.53;66.21
69257;BME280;56376;53.356;-1.748;2023-05-27T09:19:32;100689.88;;;16.48;66.27
69257;BME280;56376;53.356;-1.748;2023-05-27T09:21:58;100685.50;;;16.48;67.57
69257;BME280;56376;53.356;-1.748;2023-05-27T09:24:23;100687.91;;;16.53;66.04
69257;BME280;56376;53.356;-1.748;2023-05-27T09:26:54;100674.47;;;16.59;63.93
69257;BME280;56376;53.356;-1.748;2023-05-27T09:29:24;100678.66;;;16.63;63.24
69257;BME280;56376;53.356;-1.748;2023-05-27T09:31:56;100675.72;;;16.71;63.59
69257;BME280;56376;53.356;-1.748;2023-05-27T09:34:21;100659.50;;;16.80;64.15
69257;BME280;56376;53.356;-1.748;2023-05-27T09:36:49;100673.22;;;16.88;64.06
69257;BME280;56376;53.356;-1.748;2023-05-27T09:39:17;100659.78;;;16.94;62.62
69257;BME280;56376;53.356;-1.748;2023-05-27T09:41:43;100649.13;;;16.96;62.44
69257;BME280;56376;53.356;-1.748;2023-05-27T09:44:08;100658.56;;;17.01;62.28
69257;BME280;56376;53.356;-1.748;2023-05-27T09:46:35;100655.72;;;17.06;62.53
69257;BME280;56376;53.356;-1.748;2023-05-27T09:49:01;100663.50;;;17.09;62.20
69257;BME280;56376;53.356;-1.748;2023-05-27T09:51:28;100652.81;;;17.12;61.98
69257;BME280;56376;53.356;-1.748;2023-05-27T09:53:54;100651.94;;;17.12;61.15
69257;BME280;56376;53.356;-1.748;2023-05-27T09:56:26;100654.38;;;17.16;59.61
69257;BME280;56376;53.356;-1.748;2023-05-27T09:58:54;100649.81;;;17.20;60.18
69257;BME280;56376;53.356;-1.748;2023-05-27T10:01:22;100649.81;;;17.20;60.04
69257;BME280;56376;53.356;-1.748;2023-05-27T10:03:51;100654.09;;;17.22;61.37
69257;BME280;56376;53.356;-1.748;2023-05-27T10:06:16;100650.44;;;17.25;60.57
69257;BME280;56376;53.356;-1.748;2023-05-27T10:08:43;100653.78;;;17.28;59.86
69257;BME280;56376;53.356;-1.748;2023-05-27T10:11:10;100645.75;;;17.32;59.33
69257;BME280;56376;53.356;-1.748;2023-05-27T10:13:36;100655.09;;;17.39;59.05
69257;BME280;56376;53.356;-1.748;2023-05-27T10:16:02;100654.00;;;17.43;58.27
69257;BME280;56376;53.356;-1.748;2023-05-27T10:18:29;100650.47;;;17.44;58.20
69257;BME280;56376;53.356;-1.748;2023-05-27T10:20:56;100652.09;;;17.46;58.26
69257;BME280;56376;53.356;-1.748;2023-05-27T10:23:27;100647.53;;;17.50;58.64
69257;BME280;56376;53.356;-1.748;2023-05-27T10:26:01;100650.81;;;17.55;60.04
69257;BME280;56376;53.356;-1.748;2023-05-27T10:28:32;100646.00;;;17.63;59.97
69257;BME280;56376;53.356;-1.748;2023-05-27T10:31:05;100640.56;;;17.66;58.65
69257;BME280;56376;53.356;-1.748;2023-05-27T10:33:33;100634.38;;;17.67;60.12
69257;BME280;56376;53.356;-1.748;2023-05-27T10:38:38;100625.38;;;17.71;58.74
69257;BME280;56376;53.356;-1.748;2023-05-27T10:41:05;100609.44;;;17.73;58.92
69257;BME280;56376;53.356;-1.748;2023-05-27T10:43:32;100600.44;;;17.77;59.37
69257;BME280;56376;53.356;-1.748;2023-05-27T10:46:07;100604.53;;;17.84;59.33
69257;BME280;56376;53.356;-1.748;2023-05-27T10:48:33;100600.72;;;17.90;59.13
69257;BME280;56376;53.356;-1.748;2023-05-27T10:50:59;100602.25;;;17.94;57.92
69257;BME280;56376;53.356;-1.748;2023-05-27T10:53:28;100602.97;;;17.98;57.94
69257;BME280;56376;53.356;-1.748;2023-05-27T10:55:54;100603.66;;;18.01;57.73
69257;BME280;56376;53.356;-1.748;2023-05-27T10:58:22;100600.16;;;18.01;57.53
69257;BME280;56376;53.356;-1.748;2023-05-27T11:00:49;100594.81;;;18.02;57.07
69257;BME280;56376;53.356;-1.748;2023-05-27T11:03:25;100589.13;;;18.10;58.27
69257;BME280;56376;53.356;-1.748;2023-05-27T11:06:05;100580.03;;;18.15;58.70
69257;BME280;56376;53.356;-1.748;2023-05-27T11:08:32;100574.50;;;18.20;57.98
69257;BME280;56376;53.356;-1.748;2023-05-27T11:11:05;100579.47;;;18.26;58.25
69257;BME280;56376;53.356;-1.748;2023-05-27T11:13:45;100581.59;;;18.37;59.34
69257;BME280;56376;53.356;-1.748;2023-05-27T11:16:12;100580.47;;;18.41;58.66
69257;BME280;56376;53.356;-1.748;2023-05-27T11:18:42;100582.34;;;18.39;55.42
69257;BME280;56376;53.356;-1.748;2023-05-27T11:21:09;100574.09;;;18.45;56.31
69257;BME280;56376;53.356;-1.748;2023-05-27T11:23:41;100566.53;;;18.55;57.07
69257;BME280;56376;53.356;-1.748;2023-05-27T11:26:18;100562.78;;;18.59;56.67
69257;BME280;56376;53.356;-1.748;2023-05-27T11:28:56;100566.03;;;18.64;56.12
69257;BME280;56376;53.356;-1.748;2023-05-27T11:31:29;100566.72;;;18.68;55.96
69257;BME280;56376;53.356;-1.748;2023-05-27T11:33:56;100558.69;;;18.69;54.54
69257;BME280;56376;53.356;-1.748;2023-05-27T11:36:25;100549.00;;;18.70;53.23
69257;BME280;56376;53.356;-1.748;2023-05-27T11:38:53;100544.63;;;18.69;53.66
69257;BME280;56376;53.356;-1.748;2023-05-27T11:41:19;100538.41;;;18.70;53.89
69257;BME280;56376;53.356;-1.748;2023-05-27T11:43:58;100536.44;;;18.73;54.25
69257;BME280;56376;53.356;-1.748;2023-05-27T11:46:41;100543.22;;;18.79;54.85
69257;BME280;56376;53.356;-1.748;2023-05-27T11:49:08;100544.75;;;18.83;52.47
69257;BME280;56376;53.356;-1.748;2023-05-27T11:51:36;100538.69;;;18.81;52.39
69257;BME280;56376;53.356;-1.748;2023-05-27T11:54:02;100544.75;;;18.83;52.11
69257;BME280;56376;53.356;-1.748;2023-05-27T11:56:28;100533.06;;;18.87;52.44
69257;BME280;56376;53.356;-1.748;2023-05-27T11:58:57;100528.22;;;18.95;51.63
69257;BME280;56376;53.356;-1.748;2023-05-27T12:01:22;100522.38;;;19.05;51.75
69257;BME280;56376;53.356;-1.748;2023-05-27T12:03:48;100522.06;;;19.11;51.33
69257;BME280;56376;53.356;-1.748;2023-05-27T12:06:13;100520.00;;;19.16;50.76
69257;BME280;56376;53.356;-1.748;2023-05-27T12:08:41;100523.25;;;19.21;50.73
69257;BME280;56376;53.356;-1.748;2023-05-27T12:11:06;100509.75;;;19.26;50.37
69257;BME280;56376;53.356;-1.748;2023-05-27T12:13:32;100516.50;;;19.31;50.58
69257;BME280;56376;53.356;-1.748;2023-05-27T12:15:58;100507.25;;;19.38;51.16
69257;BME280;56376;53.356;-1.748;2023-05-27T12:18:23;100507.72;;;19.45;51.15
69257;BME280;56376;53.356;-1.748;2023-05-27T12:20:49;100499.44;;;19.51;50.59
69257;BME280;56376;53.356;-1.748;2023-05-27T12:23:15;100490.28;;;19.57;50.74
69257;BME280;56376;53.356;-1.748;2023-05-27T12:25:41;100487.94;;;19.66;50.84
69257;BME280;56376;53.356;-1.748;2023-05-27T12:28:07;100487.44;;;19.76;51.26
69257;BME280;56376;53.356;-1.748;2023-05-27T12:30:33;100479.78;;;19.85;49.39
69257;BME280;56376;53.356;-1.748;2023-05-27T12:33:00;100481.81;;;19.96;49.58
69257;BME280;56376;53.356;-1.748;2023-05-27T12:35:25;100476.81;;;20.06;49.18
69257;BME280;56376;53.356;-1.748;2023-05-27T12:37:51;100465.53;;;20.17;49.74
69257;BME280;56376;53.356;-1.748;2023-05-27T12:40:17;100466.47;;;20.30;49.17
69257;BME280;56376;53.356;-1.748;2023-05-27T12:42:43;100457.66;;;20.44;48.97
69257;BME280;56376;53.356;-1.748;2023-05-27T12:45:09;100454.41;;;20.53;49.07